createdAt,value
2018-10-17T00:00:40.259Z,99334.31
2018-10-17T00:03:08.718Z,99335.42
2018-10-17T00:05:37.194Z,99332.63
2018-10-17T00:08:06.183Z,99325.09
2018-10-17T00:10:35.145Z,99324.86
2018-10-17T00:13:04.437Z,99324.60
2018-10-17T00:15:33.929Z,99326.44
2018-10-17T00:18:03.313Z,99326.30
2018-10-17T00:20:33.294Z,99319.94
2018-10-17T00:23:02.139Z,99327.53
2018-10-17T00:25:31.418Z,99329.11
2018-10-17T00:27:59.866Z,99331.16
2018-10-17T00:30:28.699Z,99322.56
2018-10-17T00:32:57.609Z,99322.38
2018-10-17T00:35:26.661Z,99325.98
2018-10-17T00:37:56.164Z,99324.73
2018-10-17T00:40:25.873Z,99322.56
2018-10-17T00:42:55.612Z,99318.03
2018-10-17T00:45:25.024Z,99318.28
2018-10-17T00:47:54.930Z,99311.75
2018-10-17T00:50:24.092Z,99311.21
2018-10-17T00:52:52.644Z,99315.30
2018-10-17T00:55:21.551Z,99312.33
2018-10-17T00:57:51.058Z,99311.96
2018-10-17T01:00:21.045Z,99307.23
2018-10-17T01:02:50.420Z,99309.00
2018-10-17T01:05:19.668Z,99314.50
2018-10-17T01:07:48.556Z,99309.95
2018-10-17T01:10:17.456Z,99313.58
2018-10-17T01:12:46.182Z,99309.35
2018-10-17T01:15:15.368Z,99306.52
2018-10-17T01:17:44.833Z,99309.53
2018-10-17T01:20:13.939Z,99311.41
2018-10-17T01:22:43.660Z,99311.55
2018-10-17T01:25:13.204Z,99317.77
2018-10-17T01:27:42.648Z,99316.63
2018-10-17T01:30:12.977Z,99316.80
2018-10-17T01:32:42.591Z,99308.73
2018-10-17T01:35:12.728Z,99303.17
2018-10-17T01:37:41.562Z,99310.81
2018-10-17T01:40:10.864Z,99307.11
2018-10-17T01:42:40.751Z,99309.77
2018-10-17T01:45:10.114Z,99307.52
2018-10-17T01:47:39.519Z,99303.06
2018-10-17T01:50:09.323Z,99302.48
2018-10-17T01:52:38.738Z,99300.79
2018-10-17T01:55:08.032Z,99297.97
2018-10-17T01:57:37.390Z,99288.81
2018-10-17T02:00:06.786Z,99293.28
2018-10-17T02:02:36.524Z,99293.75
2018-10-17T02:05:05.990Z,99290.70
2018-10-17T02:07:35.756Z,99283.69
2018-10-17T02:10:05.109Z,99282.16
2018-10-17T02:12:34.416Z,99286.06
2018-10-17T02:15:02.951Z,99288.52
2018-10-17T02:17:31.659Z,99294.59
2018-10-17T02:20:00.203Z,99300.39
2018-10-17T02:22:29.330Z,99303.34
2018-10-17T02:24:58.607Z,99300.77
2018-10-17T02:27:27.717Z,99300.29
2018-10-17T02:29:57.054Z,99303.85
2018-10-17T02:32:25.877Z,99299.92
2018-10-17T02:35:00.115Z,99295.59
2018-10-17T02:37:29.985Z,99294.27
2018-10-17T02:40:00.077Z,99292.39
2018-10-17T02:42:29.033Z,99292.80
2018-10-17T02:44:58.289Z,99293.16
2018-10-17T02:47:27.052Z,99288.75
2018-10-17T02:49:56.590Z,99295.00
2018-10-17T02:52:25.605Z,99286.06
2018-10-17T02:54:55.345Z,99293.30
2018-10-17T02:57:24.712Z,99290.63
2018-10-17T02:59:54.673Z,99293.95
2018-10-17T03:02:24.307Z,99294.91
2018-10-17T03:04:53.997Z,99296.05
2018-10-17T03:07:23.319Z,99297.32
2018-10-17T03:09:52.874Z,99302.95
2018-10-17T03:12:22.114Z,99303.59
2018-10-17T03:14:51.391Z,99300.67
2018-10-17T03:17:20.932Z,99298.34
2018-10-17T03:19:50.791Z,99296.41
2018-10-17T03:22:19.866Z,99292.93
2018-10-17T03:24:48.974Z,99295.70
2018-10-17T03:27:18.698Z,99296.69
2018-10-17T03:29:48.191Z,99296.09
2018-10-17T03:32:17.233Z,99296.87
2018-10-17T03:34:46.647Z,99306.36
2018-10-17T03:37:15.679Z,99308.30
2018-10-17T03:39:44.816Z,99306.20
2018-10-17T03:42:13.614Z,99304.09
2018-10-17T03:44:42.750Z,99301.02
2018-10-17T03:47:11.865Z,99306.67
2018-10-17T03:49:41.552Z,99303.23
2018-10-17T03:52:10.387Z,99307.16
2018-10-17T03:54:40.027Z,99306.47
2018-10-17T03:57:08.524Z,99305.72
2018-10-17T03:59:38.087Z,99309.19
2018-10-17T04:02:08.533Z,99307.86
2018-10-17T04:04:37.604Z,99313.17
2018-10-17T04:07:06.982Z,99305.13
2018-10-17T04:09:36.134Z,99312.99
2018-10-17T04:12:06.194Z,99318.19
2018-10-17T04:14:36.068Z,99324.34
2018-10-17T04:17:05.521Z,99319.92
2018-10-17T04:19:35.711Z,99324.61
2018-10-17T04:22:05.077Z,99318.77
2018-10-17T04:24:34.037Z,99322.87
2018-10-17T04:27:03.154Z,99319.05
2018-10-17T04:29:32.449Z,99317.30
2018-10-17T04:32:01.694Z,99321.36
2018-10-17T04:34:30.698Z,99319.75
2018-10-17T04:37:00.027Z,99319.69
2018-10-17T04:39:28.821Z,99322.03
2018-10-17T04:41:57.957Z,99319.73
2018-10-17T04:44:27.516Z,99326.23
2018-10-17T04:46:56.353Z,99326.30
2018-10-17T04:49:25.200Z,99329.48
2018-10-17T04:51:53.884Z,99325.61
2018-10-17T04:54:23.596Z,99323.48
2018-10-17T04:56:53.361Z,99313.09
2018-10-17T04:59:21.922Z,99308.32
2018-10-17T05:01:51.210Z,99304.72
2018-10-17T05:04:19.725Z,99309.27
2018-10-17T05:06:48.603Z,99304.39
2018-10-17T05:09:17.809Z,99303.90
2018-10-17T05:11:47.345Z,99303.53
2018-10-17T05:14:16.427Z,99306.97
2018-10-17T05:16:45.440Z,99309.33
2018-10-17T05:19:14.648Z,99313.84
2018-10-17T05:21:43.725Z,99313.84
2018-10-17T05:24:13.069Z,99316.60
2018-10-17T05:26:42.747Z,99315.15
2018-10-17T05:29:12.324Z,99318.77
2018-10-17T05:31:42.494Z,99314.94
2018-10-17T05:34:11.809Z,99319.12
2018-10-17T05:36:41.437Z,99327.35
2018-10-17T05:39:10.640Z,99323.09
2018-10-17T05:41:39.708Z,99325.14
2018-10-17T05:44:08.608Z,99329.33
2018-10-17T05:46:37.686Z,99327.88
2018-10-17T05:49:07.399Z,99316.84
2018-10-17T05:51:36.218Z,99318.55
2018-10-17T05:54:05.747Z,99325.73
2018-10-17T05:56:35.513Z,99329.84
2018-10-17T05:59:05.658Z,99327.78
2018-10-17T06:01:35.787Z,99325.55
2018-10-17T06:04:05.017Z,99327.07
2018-10-17T06:06:34.049Z,99327.28
2018-10-17T06:09:02.999Z,99327.30
2018-10-17T06:11:32.118Z,99325.18
2018-10-17T06:14:01.363Z,99327.73
2018-10-17T06:16:31.008Z,99327.35
2018-10-17T06:19:00.871Z,99331.97
2018-10-17T06:21:29.774Z,99321.95
2018-10-17T06:23:59.808Z,99326.34
2018-10-17T06:26:28.850Z,99335.63
2018-10-17T06:28:58.232Z,99338.54
2018-10-17T06:31:28.642Z,99341.59
2018-10-17T06:33:58.793Z,99336.67
2018-10-17T06:36:27.630Z,99338.44
2018-10-17T06:38:56.802Z,99346.09
2018-10-17T06:41:25.753Z,99338.54
2018-10-17T06:43:54.607Z,99345.13
2018-10-17T06:46:23.672Z,99346.56
2018-10-17T06:48:52.754Z,99348.09
2018-10-17T06:51:21.862Z,99347.88
2018-10-17T06:53:51.138Z,99355.89
2018-10-17T06:56:20.768Z,99357.31
2018-10-17T06:58:49.908Z,99350.16
2018-10-17T07:01:19.837Z,99353.89
2018-10-17T07:03:49.772Z,99351.92
2018-10-17T07:06:19.073Z,99351.63
2018-10-17T07:08:49.161Z,99357.28
2018-10-17T07:11:18.451Z,99358.47
2018-10-17T07:13:47.698Z,99351.78
2018-10-17T07:16:16.188Z,99348.84
2018-10-17T07:18:46.042Z,99357.74
2018-10-17T07:21:15.427Z,99349.66
2018-10-17T07:23:44.872Z,99350.14
2018-10-17T07:26:14.377Z,99342.28
2018-10-17T07:28:43.565Z,99344.43
2018-10-17T07:31:13.163Z,99339.52
2018-10-17T07:33:42.511Z,99347.04
2018-10-17T07:36:11.454Z,99348.85
2018-10-17T07:38:41.083Z,99349.22
2018-10-17T07:41:10.830Z,99345.70
2018-10-17T07:43:39.650Z,99346.07
2018-10-17T07:46:08.597Z,99351.34
2018-10-17T07:48:37.758Z,99349.86
2018-10-17T07:51:07.127Z,99352.25
2018-10-17T07:53:36.890Z,99354.99
2018-10-17T07:56:05.922Z,99354.23
2018-10-17T07:58:34.343Z,99350.63
2018-10-17T08:01:04.314Z,99352.11
2018-10-17T08:03:33.473Z,99350.69
2018-10-17T08:06:03.714Z,99359.29
2018-10-17T08:08:32.850Z,99355.16
2018-10-17T08:11:02.188Z,99356.28
2018-10-17T08:13:31.761Z,99353.92
2018-10-17T08:16:01.876Z,99350.20
2018-10-17T08:18:31.130Z,99349.00
2018-10-17T08:21:00.704Z,99347.27
2018-10-17T08:23:30.249Z,99348.36
2018-10-17T08:25:59.808Z,99340.59
2018-10-17T08:28:29.078Z,99343.75
2018-10-17T08:30:58.139Z,99338.38
2018-10-17T08:33:27.080Z,99343.23
2018-10-17T08:35:56.541Z,99343.82
2018-10-17T08:38:26.238Z,99351.30
2018-10-17T08:40:55.877Z,99348.58
2018-10-17T08:43:25.270Z,99350.89
2018-10-17T08:45:54.316Z,99347.53
2018-10-17T08:48:23.956Z,99353.71
2018-10-17T08:50:52.505Z,99349.02
2018-10-17T08:53:21.332Z,99357.79
2018-10-17T08:55:51.297Z,99360.05
2018-10-17T08:58:20.091Z,99357.31
2018-10-17T09:00:49.541Z,99359.42
2018-10-17T09:03:18.365Z,99353.27
2018-10-17T09:05:47.361Z,99355.42
2018-10-17T09:08:16.313Z,99353.11
2018-10-17T09:10:45.560Z,99358.25
2018-10-17T09:13:14.367Z,99357.88
2018-10-17T09:15:43.761Z,99357.73
2018-10-17T09:18:13.456Z,99363.50
2018-10-17T09:20:42.637Z,99362.16
2018-10-17T09:23:12.090Z,99365.06
2018-10-17T09:25:41.218Z,99365.90
2018-10-17T09:28:10.468Z,99365.29
2018-10-17T09:30:39.585Z,99367.75
2018-10-17T09:33:08.846Z,99366.06
2018-10-17T09:35:38.038Z,99373.03
2018-10-17T09:38:07.336Z,99367.82
2018-10-17T09:40:36.425Z,99369.94
2018-10-17T09:43:05.815Z,99370.07
2018-10-17T09:45:35.091Z,99378.09
2018-10-17T09:48:04.522Z,99366.59
2018-10-17T09:50:33.314Z,99371.77
2018-10-17T09:53:02.807Z,99372.08
2018-10-17T09:55:32.873Z,99374.72
2018-10-17T09:58:02.012Z,99378.86
2018-10-17T10:00:36.027Z,99372.47
2018-10-17T10:03:05.722Z,99372.77
2018-10-17T10:05:34.817Z,99369.38
2018-10-17T10:08:04.356Z,99370.39
2018-10-17T10:10:33.136Z,99370.00
2018-10-17T10:13:03.351Z,99363.41
2018-10-17T10:15:32.206Z,99362.25
2018-10-17T10:18:01.698Z,99361.59
2018-10-17T10:20:31.180Z,99352.66
2018-10-17T10:23:00.753Z,99347.22
2018-10-17T10:25:29.435Z,99341.23
2018-10-17T10:27:59.384Z,99336.41
2018-10-17T10:30:28.571Z,99334.70
2018-10-17T10:32:57.877Z,99330.36
2018-10-17T10:35:27.752Z,99328.16
2018-10-17T10:37:57.259Z,99330.67
2018-10-17T10:40:25.891Z,99324.33
2018-10-17T10:42:54.861Z,99324.97
2018-10-17T10:45:25.620Z,99322.25
2018-10-17T10:47:54.637Z,99320.78
2018-10-17T10:50:23.859Z,99326.83
2018-10-17T10:52:54.271Z,99315.44
2018-10-17T10:55:23.662Z,99312.39
2018-10-17T10:57:52.744Z,99313.53
2018-10-17T11:00:21.576Z,99315.14
2018-10-17T11:02:50.613Z,99312.31
2018-10-17T11:05:19.605Z,99306.70
2018-10-17T11:07:48.815Z,99310.05
2018-10-17T11:10:17.923Z,99306.86
2018-10-17T11:12:46.409Z,99305.27
2018-10-17T11:15:15.970Z,99295.38
2018-10-17T11:17:45.094Z,99299.56
2018-10-17T11:20:14.092Z,99300.07
2018-10-17T11:22:43.237Z,99296.44
2018-10-17T11:25:13.140Z,99290.84
2018-10-17T11:27:42.780Z,99291.92
2018-10-17T11:30:12.102Z,99286.19
2018-10-17T11:32:41.317Z,99287.45
2018-10-17T11:35:10.849Z,99289.16
2018-10-17T11:37:39.929Z,99285.14
2018-10-17T11:40:08.984Z,99281.91
2018-10-17T11:42:38.027Z,99285.02
2018-10-17T11:45:07.200Z,99281.43
2018-10-17T11:47:38.731Z,99276.45
2018-10-17T11:50:08.929Z,99270.88
2018-10-17T11:52:37.840Z,99273.03
2018-10-17T11:55:07.012Z,99266.36
2018-10-17T11:57:36.136Z,99265.85
2018-10-17T12:00:06.006Z,99269.26
2018-10-17T12:02:35.036Z,99266.67
2018-10-17T12:05:04.811Z,99257.25
2018-10-17T12:07:34.018Z,99256.62
2018-10-17T12:10:03.299Z,99249.97
2018-10-17T12:12:32.650Z,99244.44
2018-10-17T12:15:01.425Z,99251.50
2018-10-17T12:17:30.277Z,99244.50
2018-10-17T12:20:00.527Z,99242.10
2018-10-17T12:22:29.642Z,99238.53
2018-10-17T12:24:58.657Z,99232.02
2018-10-17T12:27:28.142Z,99232.63
2018-10-17T12:29:57.956Z,99227.66
2018-10-17T12:32:27.562Z,99230.57
2018-10-17T12:34:56.927Z,99229.23
2018-10-17T12:37:26.544Z,99227.41
2018-10-17T12:39:57.282Z,99214.91
2018-10-17T12:42:26.277Z,99220.44
2018-10-17T12:44:56.071Z,99215.64
2018-10-17T12:47:25.581Z,99218.09
2018-10-17T12:49:55.555Z,99219.58
2018-10-17T12:52:25.153Z,99213.84
2018-10-17T12:54:54.548Z,99218.24
2018-10-17T12:57:25.007Z,99215.83
2018-10-17T12:59:54.745Z,99212.74
2018-10-17T13:02:24.945Z,99214.06
2018-10-17T13:04:54.685Z,99214.77
2018-10-17T13:07:23.762Z,99214.27
2018-10-17T13:09:52.811Z,99215.65
2018-10-17T13:12:21.517Z,99214.55
2018-10-17T13:14:51.469Z,99211.17
2018-10-17T13:17:20.677Z,99214.06
2018-10-17T13:19:49.880Z,99213.95
2018-10-17T13:22:19.925Z,99215.32
2018-10-17T13:24:48.881Z,99208.78
2018-10-17T13:27:17.339Z,99211.64
2018-10-17T13:29:46.844Z,99200.34
2018-10-17T13:32:15.936Z,99203.30
2018-10-17T13:34:46.221Z,99200.70
2018-10-17T13:37:15.634Z,99197.47
2018-10-17T13:39:44.437Z,99200.20
2018-10-17T13:42:14.048Z,99189.26
2018-10-17T13:44:43.908Z,99193.68
2018-10-17T13:47:13.471Z,99185.27
2018-10-17T13:49:42.526Z,99183.81
2018-10-17T13:52:11.757Z,99180.95
2018-10-17T13:54:41.179Z,99178.18
2018-10-17T13:57:10.722Z,99170.97
2018-10-17T13:59:40.626Z,99168.71
2018-10-17T14:02:10.382Z,99167.53
2018-10-17T14:04:39.504Z,99170.53
2018-10-17T14:07:09.093Z,99170.87
2018-10-17T14:09:38.252Z,99165.91
2018-10-17T14:12:08.956Z,99167.11
2018-10-17T14:14:38.271Z,99165.84
2018-10-17T14:17:07.286Z,99166.25
2018-10-17T14:19:36.850Z,99166.14
2018-10-17T14:22:06.013Z,99162.59
2018-10-17T14:24:34.813Z,99165.05
2018-10-17T14:27:05.360Z,99160.34
2018-10-17T14:29:34.901Z,99162.37
2018-10-17T14:32:04.471Z,99164.39
2018-10-17T14:34:37.597Z,99165.64
2018-10-17T14:37:07.676Z,99160.19
2018-10-17T14:39:37.113Z,99162.64
2018-10-17T14:42:06.135Z,99162.92
2018-10-17T14:44:35.195Z,99161.16
2018-10-17T14:47:04.788Z,99160.77
2018-10-17T14:49:34.543Z,99157.53
2018-10-17T14:52:05.004Z,99160.38
2018-10-17T14:54:33.465Z,99161.00
2018-10-17T14:57:02.668Z,99163.11
2018-10-17T14:59:32.637Z,99161.56
2018-10-17T15:02:01.851Z,99166.59
2018-10-17T15:04:31.697Z,99161.16
2018-10-17T15:07:01.925Z,99163.72
2018-10-17T15:09:30.625Z,99166.24
2018-10-17T15:12:00.028Z,99167.75
2018-10-17T15:14:29.217Z,99169.71
2018-10-17T15:16:59.110Z,99165.34
2018-10-17T15:19:28.392Z,99168.47
2018-10-17T15:21:58.996Z,99167.33
2018-10-17T15:24:28.128Z,99165.91
2018-10-17T15:26:57.171Z,99162.93
2018-10-17T15:29:26.481Z,99167.33
2018-10-17T15:31:56.480Z,99166.06
2018-10-17T15:34:25.656Z,99171.58
2018-10-17T15:36:55.245Z,99164.27
2018-10-17T15:39:24.498Z,99168.32
2018-10-17T15:41:54.296Z,99170.98
2018-10-17T15:44:24.307Z,99167.75
2018-10-17T15:46:53.929Z,99168.29
2018-10-17T15:49:23.845Z,99178.59
2018-10-17T15:51:53.556Z,99168.75
2018-10-17T15:54:23.632Z,99168.50
2018-10-17T15:56:52.628Z,99174.45
2018-10-17T15:59:22.417Z,99175.34
2018-10-17T16:01:51.781Z,99175.27
2018-10-17T16:04:21.948Z,99183.70
2018-10-17T16:06:50.413Z,99176.38
2018-10-17T16:09:20.261Z,99176.50
2018-10-17T16:11:49.421Z,99177.72
2018-10-17T16:14:19.049Z,99179.08
2018-10-17T16:16:48.308Z,99182.38
2018-10-17T16:19:17.107Z,99180.95
2018-10-17T16:21:47.261Z,99188.05
2018-10-17T16:24:16.626Z,99185.67
2018-10-17T16:26:46.431Z,99191.22
2018-10-17T16:29:15.284Z,99182.36
2018-10-17T16:31:44.929Z,99187.37
2018-10-17T16:34:14.532Z,99183.86
2018-10-17T16:36:45.124Z,99190.77
2018-10-17T16:39:15.103Z,99196.80
2018-10-17T16:41:44.288Z,99191.59
2018-10-17T16:44:13.403Z,99192.16
2018-10-17T16:46:42.800Z,99200.91
2018-10-17T16:49:11.676Z,99198.23
2018-10-17T16:51:40.849Z,99202.61
2018-10-17T16:54:10.323Z,99201.61
2018-10-17T16:56:39.785Z,99210.84
2018-10-17T16:59:08.782Z,99205.77
2018-10-17T17:01:38.326Z,99219.00
2018-10-17T17:04:07.440Z,99218.67
2018-10-17T17:06:37.177Z,99221.10
2018-10-17T17:09:08.968Z,99219.72
2018-10-17T17:11:37.691Z,99228.92
2018-10-17T17:14:07.110Z,99229.67
2018-10-17T17:16:36.123Z,99228.35
2018-10-17T17:19:06.380Z,99228.06
2018-10-17T17:21:35.803Z,99237.44
2018-10-17T17:24:05.979Z,99228.38
2018-10-17T17:26:35.149Z,99230.13
2018-10-17T17:29:04.977Z,99227.31
2018-10-17T17:36:24.220Z,99232.73
2018-10-17T17:38:53.935Z,99232.96
2018-10-17T17:41:22.971Z,99232.33
2018-10-17T17:43:52.175Z,99232.17
2018-10-17T17:46:22.360Z,99234.13
2018-10-17T17:48:51.782Z,99229.73
2018-10-17T17:51:20.881Z,99237.31
2018-10-17T17:53:50.037Z,99241.64
2018-10-17T17:56:19.194Z,99246.34
2018-10-17T17:58:48.681Z,99246.91
2018-10-17T18:01:35.443Z,99246.56
